Time;durP1;ratioP1;P1;durP2;ratioP2;P2;SDS_P1;SDS_P2;PMS_P1;PMS_P2;Temp;Humidity;BMP_temperature;BMP_pressure;BME280_temperature;BME280_humidity;BME280_pressure;Samples;Min_cycle;Max_cycle;Signal;HPM_P1;HPM_P2
2021/03/12 00:01:26;;;;;;;4.60;2.00;;;25.00;83.80;;;;;;5071784;28;20028;-62
2021/03/12 00:03:54;;;;;;;6.38;2.60;;;25.00;82.80;;;;;;5071552;28;20051;-60
2021/03/12 00:06:21;;;;;;;6.95;2.50;;;25.00;82.80;;;;;;5070886;28;20044;-61
2021/03/12 00:08:48;;;;;;;8.40;2.70;;;25.00;83.80;;;;;;5072030;28;20021;-59
2021/03/12 00:11:16;;;;;;;3.83;2.03;;;25.10;82.90;;;;;;5071867;28;20681;-64
2021/03/12 00:13:44;;;;;;;5.07;2.30;;;25.10;82.90;;;;;;5072242;28;20036;-67
2021/03/12 00:16:11;;;;;;;4.20;2.00;;;25.10;82.50;;;;;;5071907;28;20494;-69
2021/03/12 00:18:42;;;;;;;3.83;2.03;;;25.10;82.50;;;;;;5072262;28;20142;-57
2021/03/12 00:21:10;;;;;;;9.05;3.05;;;25.10;82.40;;;;;;5072191;28;20111;-63
2021/03/12 00:23:39;;;;;;;9.63;3.05;;;25.10;83.30;;;;;;5072114;28;20025;-65
2021/03/12 00:26:07;;;;;;;7.10;2.63;;;25.20;83.60;;;;;;5071788;28;20539;-48
2021/03/12 00:28:34;;;;;;;6.97;2.00;;;25.20;82.60;;;;;;5072156;28;20099;-63
2021/03/12 00:31:03;;;;;;;6.47;2.50;;;25.10;82.60;;;;;;5071613;28;20159;-65
2021/03/12 00:33:31;;;;;;;4.90;2.10;;;25.20;82.40;;;;;;5071401;28;20025;-61
2021/03/12 00:35:59;;;;;;;6.97;2.45;;;25.20;82.40;;;;;;5072028;28;20024;-60
2021/03/12 00:38:26;;;;;;;6.18;2.45;;;25.10;82.50;;;;;;5072584;28;20040;-65
2021/03/12 00:40:56;;;;;;;9.30;2.90;;;25.10;82.50;;;;;;5072261;28;20028;-64
2021/03/12 00:43:24;;;;;;;4.65;2.38;;;25.10;82.70;;;;;;5073347;28;20028;-70
2021/03/12 00:45:57;;;;;;;6.00;2.50;;;25.10;82.60;;;;;;5071382;28;20524;-63
2021/03/12 00:48:25;;;;;;;7.57;2.03;;;25.10;82.70;;;;;;5076935;28;20078;-69
2021/03/12 00:50:53;;;;;;;6.35;2.45;;;25.10;82.80;;;;;;5076228;28;20016;-61
2021/03/12 00:53:22;;;;;;;5.68;2.75;;;25.10;82.90;;;;;;5076753;28;20509;-64
2021/03/12 00:55:49;;;;;;;6.18;2.00;;;25.10;83.10;;;;;;5076589;28;20025;-66
2021/03/12 00:58:17;;;;;;;5.35;2.28;;;25.00;83.10;;;;;;5076821;28;20104;-70
2021/03/12 01:00:45;;;;;;;5.93;2.60;;;25.10;83.00;;;;;;5076165;28;20025;-64
2021/03/12 01:03:12;;;;;;;4.63;2.13;;;25.20;83.00;;;;;;5069613;28;20060;-64
2021/03/12 01:05:41;;;;;;;4.60;2.10;;;25.20;82.80;;;;;;5076080;28;20113;-68
2021/03/12 01:08:09;;;;;;;5.32;2.38;;;25.20;83.00;;;;;;5076444;28;20021;-58
2021/03/12 01:10:37;;;;;;;5.60;2.45;;;25.30;82.70;;;;;;5077029;28;20024;-63
2021/03/12 01:13:05;;;;;;;4.00;2.00;;;25.30;82.60;;;;;;5076053;28;20360;-60
2021/03/12 01:15:33;;;;;;;3.60;2.00;;;25.30;82.60;;;;;;5075913;28;20404;-64
2021/03/12 01:18:00;;;;;;;4.07;2.00;;;25.40;82.20;;;;;;5075571;28;20494;-65
2021/03/12 01:20:38;;;;;;;3.67;1.98;;;25.40;82.20;;;;;;5074972;28;20051;-51
2021/03/12 01:23:06;;;;;;;4.05;2.15;;;25.40;82.30;;;;;;5074720;28;20040;-67
2021/03/12 01:25:46;;;;;;;5.32;2.13;;;25.50;81.80;;;;;;5075642;28;20021;-60
2021/03/12 01:28:13;;;;;;;7.30;2.28;;;25.50;81.50;;;;;;5075619;28;20486;-55
2021/03/12 01:30:47;;;;;;;6.25;1.83;;;25.50;81.30;;;;;;5072861;28;20701;-64
2021/03/12 01:33:14;;;;;;;6.72;2.38;;;25.60;81.40;;;;;;5071333;28;20037;-55
2021/03/12 01:35:42;;;;;;;4.88;2.15;;;25.70;80.90;;;;;;5072835;28;20025;-55
2021/03/12 01:38:09;;;;;;;2.90;1.55;;;25.80;81.00;;;;;;5073506;28;20397;-53
2021/03/12 01:40:45;;;;;;;4.03;2.25;;;25.90;80.90;;;;;;5073759;28;20107;-51
2021/03/12 01:43:13;;;;;;;5.32;2.03;;;25.90;80.40;;;;;;5074699;28;20113;-68
2021/03/12 01:45:48;;;;;;;5.22;2.28;;;26.00;80.00;;;;;;5074834;28;20505;-62
2021/03/12 01:48:23;;;;;;;3.70;1.95;;;26.10;80.00;;;;;;5073475;28;20367;-59
2021/03/12 01:50:58;;;;;;;4.35;1.80;;;26.20;79.40;;;;;;5074330;28;20029;-57
2021/03/12 01:53:27;;;;;;;3.95;2.05;;;26.30;79.40;;;;;;5074254;28;20102;-62
2021/03/12 01:55:56;;;;;;;6.22;1.83;;;26.40;78.50;;;;;;5074099;28;20028;-66
2021/03/12 01:58:25;;;;;;;5.57;2.17;;;26.40;78.00;;;;;;5073245;28;20024;-64
2021/03/12 02:00:53;;;;;;;4.90;1.83;;;26.50;78.20;;;;;;5074089;28;20020;-64
2021/03/12 02:03:26;;;;;;;5.25;2.28;;;26.50;78.30;;;;;;5074247;28;20098;-66
2021/03/12 02:05:54;;;;;;;3.03;1.70;;;26.50;77.50;;;;;;5073981;28;20045;-60
2021/03/12 02:08:22;;;;;;;4.13;1.88;;;26.50;77.70;;;;;;5073994;28;20024;-61
2021/03/12 02:10:51;;;;;;;3.85;1.83;;;26.40;78.10;;;;;;5074223;28;20487;-60
2021/03/12 02:13:37;;;;;;;4.93;1.80;;;26.50;77.80;;;;;;5072970;28;20399;-56
2021/03/12 02:16:27;;;;;;;6.47;1.95;;;26.40;78.30;;;;;;5074129;28;20479;-61
2021/03/12 02:19:23;;;;;;;4.38;1.60;;;26.40;78.50;;;;;;5073643;28;20465;-57
2021/03/12 02:21:56;;;;;;;5.10;2.10;;;26.30;78.90;;;;;;5074030;28;20517;-60
2021/03/12 02:24:52;;;;;;;4.13;1.80;;;26.30;79.00;;;;;;5074049;28;20044;-61
2021/03/12 02:27:21;;;;;;;4.03;1.60;;;26.30;79.10;;;;;;5073793;28;20116;-59
2021/03/12 02:29:58;;;;;;;6.28;2.25;;;26.30;78.90;;;;;;5073397;28;20067;-62
2021/03/12 02:32:39;;;;;;;5.38;1.90;;;26.40;78.80;;;;;;5073815;28;20037;-67
2021/03/12 02:35:10;;;;;;;3.53;1.60;;;26.40;79.00;;;;;;5073384;28;20441;-61
2021/03/12 02:37:39;;;;;;;2.80;1.60;;;26.30;79.00;;;;;;5073724;28;20104;-61
2021/03/12 02:40:08;;;;;;;4.00;1.77;;;26.30;78.90;;;;;;5073872;28;20036;-64
2021/03/12 02:42:40;;;;;;;4.07;2.03;;;26.30;79.00;;;;;;5073754;28;20069;-68
2021/03/12 02:45:08;;;;;;;;;;;26.20;79.10;;;;;;5074001;28;20064;-67
2021/03/12 02:47:37;;;;;;;2.83;1.55;;;26.30;79.30;;;;;;5073578;28;19931;-66
2021/03/12 02:50:06;;;;;;;3.75;1.55;;;26.20;79.40;;;;;;5073332;28;20036;-67
2021/03/12 02:52:34;;;;;;;3.22;1.73;;;26.30;79.30;;;;;;5073509;28;20041;-65
2021/03/12 02:55:02;;;;;;;1.95;1.40;;;26.30;79.40;;;;;;5073632;28;20398;-60
2021/03/12 02:57:30;;;;;;;3.47;1.95;;;26.30;79.10;;;;;;5073429;28;20563;-60
2021/03/12 02:59:57;;;;;;;3.25;1.38;;;26.40;78.60;;;;;;5073331;28;20439;-65
2021/03/12 03:02:27;;;;;;;4.00;1.92;;;26.40;79.40;;;;;;5073034;28;20029;-64
2021/03/12 03:04:59;;;;;;;3.38;1.85;;;26.40;79.40;;;;;;5072822;28;20063;-67
2021/03/12 03:07:28;;;;;;;2.70;1.67;;;26.50;78.70;;;;;;5073134;28;20068;-69
2021/03/12 03:09:56;;;;;;;7.88;2.15;;;26.60;78.90;;;;;;5073037;28;20090;-68
2021/03/12 03:12:26;;;;;;;3.03;1.80;;;26.60;78.20;;;;;;5073072;28;20072;-61
2021/03/12 03:14:59;;;;;;;7.65;2.03;;;26.70;78.00;;;;;;5072613;28;20024;-67
2021/03/12 03:17:28;;;;;;;3.97;1.85;;;26.80;76.90;;;;;;5072961;28;20028;-67
2021/03/12 03:19:59;;;;;;;8.52;1.98;;;26.80;77.30;;;;;;5072954;28;20055;-66
2021/03/12 03:22:26;;;;;;;15.70;2.67;;;27.00;77.20;;;;;;5072676;28;20032;-66
2021/03/12 03:24:55;;;;;;;4.72;1.80;;;27.00;76.20;;;;;;5072656;28;20421;-61
2021/03/12 03:27:23;;;;;;;2.78;1.73;;;27.20;76.80;;;;;;5072531;28;20027;-62
2021/03/12 03:29:50;;;;;;;4.13;1.75;;;27.20;76.10;;;;;;5072649;28;20039;-64
2021/03/12 03:32:17;;;;;;;3.28;1.77;;;27.20;75.80;;;;;;5072630;28;20082;-65
2021/03/12 03:34:45;;;;;;;5.78;2.05;;;27.20;76.00;;;;;;5072151;28;20059;-55
2021/03/12 03:37:13;;;;;;;4.13;2.00;;;27.20;76.20;;;;;;5070462;28;20112;-64
2021/03/12 03:39:41;;;;;;;4.63;1.80;;;27.20;76.10;;;;;;5071736;28;20028;-56
2021/03/12 03:42:11;;;;;;;4.55;1.60;;;27.20;76.20;;;;;;5072319;28;20418;-65
2021/03/12 03:44:40;;;;;;;2.88;1.65;;;27.10;76.40;;;;;;5072396;28;20035;-57
2021/03/12 03:47:09;;;;;;;6.07;2.50;;;27.10;76.50;;;;;;5071600;28;20511;-59
2021/03/12 03:49:38;;;;;;;5.15;1.83;;;27.10;76.70;;;;;;5072329;28;20032;-66
2021/03/12 03:52:07;;;;;;;6.50;2.22;;;27.00;76.90;;;;;;5072045;28;20029;-67
2021/03/12 03:54:41;;;;;;;6.05;1.90;;;27.00;77.00;;;;;;5071700;28;20020;-64
2021/03/12 03:57:10;;;;;;;3.38;1.50;;;27.00;77.00;;;;;;5071956;28;20025;-61
2021/03/12 03:59:41;;;;;;;4.70;1.48;;;27.00;77.40;;;;;;5072259;28;20608;-65
2021/03/12 04:02:15;;;;;;;4.55;2.00;;;26.90;77.70;;;;;;5070836;28;20033;-71
2021/03/12 04:04:46;;;;;;;7.72;2.33;;;26.90;77.40;;;;;;5070205;28;20391;-68
2021/03/12 04:07:15;;;;;;;5.28;1.70;;;26.80;77.60;;;;;;5072246;28;20115;-60
2021/03/12 04:09:44;;;;;;;4.13;1.40;;;26.90;77.70;;;;;;5071862;28;20020;-61
2021/03/12 04:12:13;;;;;;;5.43;1.90;;;26.90;77.80;;;;;;5071948;28;20033;-60
2021/03/12 04:14:43;;;;;;;4.05;1.65;;;26.80;77.60;;;;;;5072189;28;20454;-61
2021/03/12 04:17:11;;;;;;;5.72;2.03;;;26.70;78.10;;;;;;5071887;28;20130;-67
2021/03/12 04:19:39;;;;;;;2.55;1.50;;;26.70;78.40;;;;;;5071787;28;20428;-62
2021/03/12 04:22:08;;;;;;;4.55;2.08;;;26.60;78.50;;;;;;5071350;28;20025;-56
2021/03/12 04:24:36;;;;;;;4.20;1.50;;;26.60;78.50;;;;;;5072170;28;20025;-66
2021/03/12 04:27:05;;;;;;;4.28;1.90;;;26.60;78.90;;;;;;5071695;28;20044;-62
2021/03/12 04:29:33;;;;;;;3.58;2.10;;;26.60;78.70;;;;;;5071269;28;20074;-62
2021/03/12 04:32:00;;;;;;;4.18;1.35;;;26.60;79.00;;;;;;5071458;28;20406;-67
2021/03/12 04:34:28;;;;;;;4.32;1.67;;;26.60;78.90;;;;;;5071342;28;20036;-61
2021/03/12 04:36:55;;;;;;;4.13;1.88;;;26.50;79.30;;;;;;5071121;28;20024;-62
2021/03/12 04:39:24;;;;;;;5.15;1.50;;;26.60;79.30;;;;;;5071299;28;20074;-57
2021/03/12 04:41:52;;;;;;;4.22;2.28;;;26.50;79.30;;;;;;5071762;28;20021;-65
2021/03/12 04:44:20;;;;;;;2.75;1.55;;;26.50;79.40;;;;;;5069825;28;20108;-65
2021/03/12 04:46:49;;;;;;;3.70;1.77;;;26.50;79.50;;;;;;5069521;28;20029;-58
2021/03/12 04:49:18;;;;;;;6.65;2.03;;;26.50;79.60;;;;;;5069592;28;20032;-57
2021/03/12 04:51:46;;;;;;;6.35;2.20;;;26.50;79.80;;;;;;5071118;28;20087;-60
2021/03/12 04:54:18;;;;;;;7.07;1.95;;;26.50;79.90;;;;;;5071125;28;20025;-61
2021/03/12 04:56:45;;;;;;;;;;;26.50;80.00;;;;;;5071797;28;20116;-62
2021/03/12 04:59:13;;;;;;;9.13;2.35;;;26.40;80.00;;;;;;5070981;28;20420;-63
2021/03/12 05:01:43;;;;;;;4.43;1.80;;;26.40;80.10;;;;;;5070844;28;20117;-66
2021/03/12 05:04:12;;;;;;;5.03;1.95;;;26.40;79.90;;;;;;5071036;28;20528;-63
2021/03/12 05:06:43;;;;;;;8.32;2.05;;;26.40;80.10;;;;;;5071309;28;20060;-70
2021/03/12 05:09:12;;;;;;;5.20;2.17;;;26.30;80.20;;;;;;5069244;28;20021;-64
2021/03/12 05:11:44;;;;;;;5.45;1.92;;;26.30;80.30;;;;;;5071035;28;20029;-64
2021/03/12 05:14:12;;;;;;;4.32;1.95;;;26.30;80.40;;;;;;5070428;28;20039;-66
2021/03/12 05:16:40;;;;;;;3.90;1.92;;;26.30;80.40;;;;;;5071659;28;20036;-68
2021/03/12 05:19:07;;;;;;;5.18;2.25;;;26.20;80.70;;;;;;5070639;28;20028;-68
2021/03/12 05:21:35;;;;;;;6.90;2.17;;;26.20;80.80;;;;;;5070930;28;20601;-60
2021/03/12 05:24:03;;;;;;;4.63;2.47;;;26.20;81.00;;;;;;5071638;28;20024;-68
2021/03/12 05:26:30;;;;;;;4.93;1.90;;;26.20;81.00;;;;;;5071095;28;20044;-57
2021/03/12 05:28:57;;;;;;;4.80;2.10;;;26.20;81.10;;;;;;5069591;28;20374;-65
2021/03/12 05:31:26;;;;;;;4.85;2.20;;;26.20;81.10;;;;;;5071238;28;20372;-70
2021/03/12 05:33:54;;;;;;;6.47;2.30;;;26.10;81.30;;;;;;5074407;28;20100;-59
2021/03/12 05:36:22;;;;;;;7.75;2.88;;;26.10;81.40;;;;;;5074474;28;20020;-63
2021/03/12 05:38:50;;;;;;;5.90;1.73;;;26.10;81.60;;;;;;5073705;28;20323;-60
2021/03/12 05:41:19;;;;;;;4.07;1.90;;;26.00;81.70;;;;;;5074003;28;20210;-65
2021/03/12 05:43:47;;;;;;;5.18;2.15;;;26.00;81.70;;;;;;5074829;28;20051;-67
2021/03/12 05:46:15;;;;;;;7.68;1.85;;;26.00;81.90;;;;;;5073108;28;20040;-70
2021/03/12 05:48:44;;;;;;;4.28;2.03;;;25.90;81.90;;;;;;5073667;28;20489;-67
2021/03/12 05:51:13;;;;;;;5.07;1.88;;;25.90;81.90;;;;;;5073772;28;20487;-63
2021/03/12 05:53:41;;;;;;;5.57;1.95;;;25.90;82.10;;;;;;5073792;28;20032;-61
2021/03/12 05:56:08;;;;;;;4.90;2.40;;;25.80;82.30;;;;;;5074120;28;20383;-57
2021/03/12 05:58:38;;;;;;;6.20;2.15;;;25.80;82.40;;;;;;5073593;28;20032;-56
2021/03/12 06:01:05;;;;;;;6.57;2.17;;;25.90;82.60;;;;;;5073389;28;20516;-69
2021/03/12 06:03:33;;;;;;;5.88;2.08;;;25.80;82.60;;;;;;5074193;28;20443;-69
2021/03/12 06:06:00;;;;;;;5.03;2.15;;;25.80;82.70;;;;;;5073911;28;20503;-67
2021/03/12 06:08:30;;;;;;;4.95;1.95;;;25.80;82.70;;;;;;5074075;28;20115;-61
2021/03/12 06:10:58;;;;;;;5.88;2.40;;;25.80;83.00;;;;;;5073093;28;20055;-68
2021/03/12 06:13:25;;;;;;;3.78;1.85;;;25.80;83.00;;;;;;5073731;28;20044;-58
2021/03/12 06:15:52;;;;;;;5.15;2.13;;;25.80;82.90;;;;;;5073235;28;20032;-58
2021/03/12 06:18:25;;;;;;;4.97;2.08;;;25.80;83.30;;;;;;5073752;28;20086;-60
2021/03/12 06:20:55;;;;;;;4.75;1.90;;;25.80;83.10;;;;;;5072948;28;20040;-64
2021/03/12 06:23:39;;;;;;;6.85;2.25;;;25.80;83.10;;;;;;5073499;28;20478;-67
2021/03/12 06:26:07;;;;;;;4.40;2.10;;;25.70;83.10;;;;;;5072434;28;20033;-71
2021/03/12 06:28:34;;;;;;;7.47;2.25;;;25.80;83.10;;;;;;5073690;28;20029;-52
2021/03/12 06:31:22;;;;;;;7.68;2.28;;;25.80;83.00;;;;;;5073603;28;20032;-57
2021/03/12 06:33:49;;;;;;;4.20;2.00;;;25.70;83.20;;;;;;5073195;28;20029;-54
2021/03/12 06:36:30;;;;;;;9.63;2.40;;;25.70;83.30;;;;;;5073022;28;20020;-59
2021/03/12 06:38:57;;;;;;;8.30;2.67;;;25.70;83.40;;;;;;5072560;28;20048;-55
2021/03/12 06:41:41;;;;;;;4.68;2.00;;;25.70;83.20;;;;;;5072830;28;20024;-56
2021/03/12 06:44:26;;;;;;;7.28;2.25;;;25.70;83.20;;;;;;5072733;28;20055;-52
2021/03/12 06:46:54;;;;;;;5.15;2.13;;;25.70;83.30;;;;;;5073022;28;20366;-61
2021/03/12 06:49:21;;;;;;;9.75;2.50;;;25.70;83.20;;;;;;5072876;28;20036;-71
2021/03/12 06:52:05;;;;;;;8.45;2.63;;;25.70;83.30;;;;;;5072819;28;20028;-59
2021/03/12 06:54:33;;;;;;;5.00;1.77;;;25.70;83.30;;;;;;5071996;28;20031;-54
2021/03/12 06:57:17;;;;;;;6.28;2.25;;;25.70;83.30;;;;;;5073329;28;20103;-59
2021/03/12 06:59:45;;;;;;;6.10;2.20;;;25.70;83.40;;;;;;5072122;28;20433;-59
2021/03/12 07:02:12;;;;;;;4.22;2.05;;;25.70;83.40;;;;;;5069751;28;20573;-56
2021/03/12 07:04:53;;;;;;;5.13;1.95;;;25.60;83.30;;;;;;5072412;28;20078;-58
2021/03/12 07:07:40;;;;;;;5.17;2.03;;;25.60;83.60;;;;;;5072796;28;20413;-57
2021/03/12 07:10:09;;;;;;;6.38;2.20;;;25.60;83.50;;;;;;5072491;28;20802;-60
2021/03/12 07:12:48;;;;;;;9.05;2.58;;;25.60;83.70;;;;;;5072088;28;20029;-56
2021/03/12 07:15:16;;;;;;;5.95;2.05;;;25.60;83.70;;;;;;5072428;28;20026;-62
2021/03/12 07:17:44;;;;;;;5.05;1.98;;;25.60;83.70;;;;;;5072114;28;20420;-53
2021/03/12 07:20:14;;;;;;;4.18;1.58;;;25.60;83.70;;;;;;5072291;28;20016;-62
2021/03/12 07:22:46;;;;;;;5.03;1.98;;;25.50;83.70;;;;;;5072026;28;20467;-58
2021/03/12 07:25:13;;;;;;;6.75;2.10;;;25.60;83.70;;;;;;5072491;28;20021;-69
2021/03/12 07:27:47;;;;;;;6.60;2.15;;;25.50;83.60;;;;;;5072036;28;20539;-67
2021/03/12 07:30:16;;;;;;;7.70;2.42;;;25.50;83.70;;;;;;5071564;28;20440;-60
2021/03/12 07:32:47;;;;;;;6.18;2.10;;;25.50;83.70;;;;;;5071824;28;20033;-61
2021/03/12 07:35:16;;;;;;;5.78;2.17;;;25.50;83.90;;;;;;5072357;28;20028;-63
2021/03/12 07:37:47;;;;;;;5.00;2.25;;;25.50;84.00;;;;;;5072287;28;20029;-62
2021/03/12 07:40:17;;;;;;;6.63;2.50;;;25.50;84.10;;;;;;5072033;28;20186;-61
2021/03/12 07:42:47;;;;;;;6.75;2.15;;;25.50;84.30;;;;;;5069876;28;20031;-66
2021/03/12 07:45:18;;;;;;;5.32;1.98;;;25.40;84.30;;;;;;5072225;28;20028;-67
2021/03/12 07:47:46;;;;;;;7.68;2.05;;;25.40;84.30;;;;;;5071951;28;20067;-62
2021/03/12 07:50:35;;;;;;;5.13;1.75;;;25.40;84.50;;;;;;5071873;28;20024;-61
2021/03/12 07:53:04;;;;;;;5.97;2.38;;;25.40;84.50;;;;;;5071620;28;20028;-64
2021/03/12 07:55:37;;;;;;;3.60;1.90;;;25.40;84.60;;;;;;5071243;28;20493;-62
2021/03/12 07:58:07;;;;;;;8.13;2.70;;;25.40;84.60;;;;;;5071719;28;20430;-66
2021/03/12 08:00:57;;;;;;;5.95;2.15;;;25.30;84.50;;;;;;5072110;28;20020;-58
2021/03/12 08:03:35;;;;;;;5.57;2.33;;;25.40;84.60;;;;;;5063699;28;20032;-60
2021/03/12 08:06:23;;;;;;;5.40;2.33;;;25.30;84.60;;;;;;5071491;28;20109;-62
2021/03/12 08:08:50;;;;;;;6.50;2.42;;;25.30;84.70;;;;;;5071379;28;20032;-68
2021/03/12 08:11:17;;;;;;;6.60;2.33;;;25.30;85.00;;;;;;5070259;28;20067;-58
2021/03/12 08:13:46;;;;;;;5.68;2.00;;;25.30;84.70;;;;;;5071802;28;20059;-59
2021/03/12 08:16:13;;;;;;;6.40;2.05;;;25.20;84.70;;;;;;5073273;28;20035;-60
2021/03/12 08:18:41;;;;;;;5.90;2.65;;;25.20;84.80;;;;;;5072740;28;20024;-65
2021/03/12 08:21:32;;;;;;;5.72;2.33;;;25.20;85.10;;;;;;5073367;28;20024;-64
2021/03/12 08:24:01;;;;;;;9.52;2.40;;;25.20;85.20;;;;;;5072025;28;20028;-57
2021/03/12 08:26:55;;;;;;;7.32;2.28;;;25.20;85.40;;;;;;5072575;28;20063;-63
2021/03/12 08:29:44;;;;;;;8.50;2.78;;;25.10;85.20;;;;;;5069408;28;20037;-59
2021/03/12 08:32:36;;;;;;;6.93;2.50;;;25.10;85.50;;;;;;5071263;28;20032;-63
2021/03/12 08:35:06;;;;;;;4.05;2.13;;;25.10;85.60;;;;;;5071779;28;20021;-61
2021/03/12 08:37:34;;;;;;;5.75;2.53;;;25.00;85.90;;;;;;5072548;28;20025;-55
2021/03/12 08:40:16;;;;;;;7.75;2.50;;;25.00;86.10;;;;;;5070588;28;20029;-58
2021/03/12 08:43:04;;;;;;;8.05;2.55;;;24.90;86.10;;;;;;5071627;28;20047;-58
2021/03/12 08:45:42;;;;;;;7.25;2.95;;;24.90;86.30;;;;;;5071967;28;20079;-65
2021/03/12 08:48:21;;;;;;;5.18;2.30;;;24.90;86.40;;;;;;5071180;28;20032;-61
2021/03/12 08:51:04;;;;;;;8.15;2.78;;;24.90;86.50;;;;;;5070792;28;20040;-62
2021/03/12 08:56:53;;;;;;;6.25;2.67;;;24.80;86.90;;;;;;5071986;28;20035;-69
2021/03/12 08:59:28;;;;;;;6.30;2.47;;;24.80;87.00;;;;;;5071761;28;20350;-69
2021/03/12 09:01:58;;;;;;;5.47;2.38;;;24.80;87.10;;;;;;5071646;28;20496;-64
2021/03/12 09:04:31;;;;;;;9.60;2.85;;;24.80;87.20;;;;;;5070762;28;20052;-66
2021/03/12 09:07:04;;;;;;;6.07;2.42;;;24.80;87.30;;;;;;5072431;28;20051;-59
2021/03/12 09:09:38;;;;;;;4.95;2.30;;;24.70;87.50;;;;;;5074241;28;20033;-64
2021/03/12 09:12:06;;;;;;;5.63;2.30;;;24.70;87.70;;;;;;5074885;28;20028;-66
2021/03/12 09:14:40;;;;;;;6.57;2.97;;;24.70;87.80;;;;;;5075061;28;20029;-68
2021/03/12 09:17:07;;;;;;;6.50;2.63;;;24.60;87.70;;;;;;5073832;28;20028;-69
2021/03/12 09:19:35;;;;;;;9.05;2.67;;;24.60;88.60;;;;;;5075395;28;20427;-64
2021/03/12 09:22:03;;;;;;;7.57;2.70;;;24.60;88.20;;;;;;5074836;28;20027;-66
2021/03/12 09:24:31;;;;;;;7.22;2.97;;;24.60;88.30;;;;;;5073592;28;20094;-59
2021/03/12 09:26:58;;;;;;;9.30;2.88;;;24.60;88.30;;;;;;5075217;28;20067;-64
2021/03/12 09:29:34;;;;;;;7.82;3.33;;;24.60;88.40;;;;;;5074865;28;20024;-61
2021/03/12 09:32:02;;;;;;;8.40;2.70;;;24.60;88.40;;;;;;5074388;28;20032;-62
2021/03/12 09:34:29;;;;;;;5.72;2.30;;;24.60;88.40;;;;;;5074551;28;20111;-67
2021/03/12 09:36:58;;;;;;;7.90;2.50;;;24.60;88.40;;;;;;5074911;28;20051;-54
2021/03/12 09:39:26;;;;;;;8.30;3.10;;;24.50;88.50;;;;;;5074657;28;20035;-67
2021/03/12 09:41:55;;;;;;;5.75;2.30;;;24.50;88.50;;;;;;5074253;28;20020;-58
2021/03/12 09:44:27;;;;;;;8.13;2.60;;;24.60;88.40;;;;;;5074764;28;20421;-69
2021/03/12 09:46:59;;;;;;;9.27;2.53;;;24.50;88.50;;;;;;5075007;28;20056;-60
2021/03/12 09:49:31;;;;;;;6.38;2.83;;;24.50;88.50;;;;;;5074907;28;20437;-58
2021/03/12 09:52:15;;;;;;;7.78;2.70;;;24.50;88.40;;;;;;5074488;28;20116;-54
2021/03/12 09:54:44;;;;;;;7.05;2.20;;;24.60;88.60;;;;;;5074281;28;20046;-58
2021/03/12 09:57:17;;;;;;;9.23;3.40;;;24.50;88.80;;;;;;5075002;28;20029;-66
2021/03/12 09:59:52;;;;;;;3.97;2.38;;;24.60;88.90;;;;;;5075003;28;20074;-60
2021/03/12 10:02:20;;;;;;;8.13;3.00;;;24.50;88.80;;;;;;5071742;28;20594;-56
2021/03/12 10:04:56;;;;;;;8.85;2.80;;;24.50;89.20;;;;;;5072789;28;20127;-61
2021/03/12 10:07:24;;;;;;;5.90;2.25;;;24.50;89.30;;;;;;5073471;28;20100;-61
2021/03/12 10:09:51;;;;;;;8.57;3.00;;;24.60;89.40;;;;;;5073820;28;20043;-69
2021/03/12 10:12:22;;;;;;;7.45;2.58;;;24.50;89.40;;;;;;5074033;28;20036;-69
2021/03/12 10:14:50;;;;;;;6.43;3.03;;;24.60;89.40;;;;;;5073919;28;20028;-56
2021/03/12 10:17:27;;;;;;;8.20;3.05;;;24.50;89.50;;;;;;5074136;28;20466;-65
2021/03/12 10:20:29;;;;;;;7.32;2.65;;;24.50;89.50;;;;;;5073239;28;20111;-68
2021/03/12 10:23:07;;;;;;;11.60;3.45;;;24.60;89.50;;;;;;5074236;28;20021;-62
2021/03/12 10:25:47;;;;;;;7.13;2.85;;;24.50;89.70;;;;;;5073970;28;20047;-64
2021/03/12 10:28:18;;;;;;;9.05;2.78;;;24.50;89.60;;;;;;5074002;28;20016;-66
2021/03/12 10:30:56;;;;;;;9.50;3.33;;;24.50;89.60;;;;;;5074155;28;20028;-65
2021/03/12 10:33:26;;;;;;;9.35;3.25;;;24.50;89.60;;;;;;5073717;28;20127;-64
2021/03/12 10:36:03;;;;;;;8.27;2.35;;;24.50;89.70;;;;;;5073742;28;20028;-65
2021/03/12 10:38:35;;;;;;;12.73;3.83;;;24.50;89.60;;;;;;5073820;28;20043;-71
2021/03/12 10:41:06;;;;;;;9.00;3.22;;;24.50;89.80;;;;;;5074032;28;20027;-70
2021/03/12 10:43:35;;;;;;;9.10;2.97;;;24.50;89.80;;;;;;5074120;28;20444;-69
2021/03/12 10:46:07;;;;;;;7.18;2.95;;;24.50;89.80;;;;;;5073633;28;20154;-63
2021/03/12 10:48:43;;;;;;;8.10;3.13;;;24.50;89.80;;;;;;5073500;28;20075;-60
2021/03/12 10:51:11;;;;;;;8.85;3.25;;;24.50;89.80;;;;;;5073664;28;20425;-65
2021/03/12 10:53:54;;;;;;;5.47;2.63;;;24.50;89.80;;;;;;5073625;28;20483;-69
2021/03/12 10:56:26;;;;;;;10.93;3.00;;;24.50;89.70;;;;;;5072932;28;20093;-68
2021/03/12 10:58:55;;;;;;;9.68;2.95;;;24.50;89.80;;;;;;5073241;28;20032;-65
2021/03/12 11:01:30;;;;;;;9.40;3.20;;;24.50;89.90;;;;;;5073045;28;20024;-58
2021/03/12 11:04:01;;;;;;;10.07;3.05;;;24.50;89.80;;;;;;5073445;28;20491;-68
2021/03/12 11:06:37;;;;;;;7.07;2.60;;;24.50;89.90;;;;;;5072875;28;20040;-65
2021/03/12 11:09:09;;;;;;;7.80;3.53;;;24.40;89.90;;;;;;5073071;28;20094;-62
2021/03/12 11:11:36;;;;;;;;;;;24.40;89.90;;;;;;5072195;28;20025;-67
2021/03/12 11:14:03;;;;;;;8.18;3.20;;;24.40;89.80;;;;;;5072540;28;20029;-66
2021/03/12 11:16:31;;;;;;;7.03;2.67;;;24.40;89.80;;;;;;5072524;28;20128;-62
2021/03/12 11:18:58;;;;;;;6.03;2.38;;;24.40;89.80;;;;;;5072936;28;20021;-61
2021/03/12 11:21:28;;;;;;;9.35;3.00;;;24.40;89.70;;;;;;5073027;28;20029;-65
2021/03/12 11:23:55;;;;;;;9.48;2.75;;;24.40;89.70;;;;;;5071095;28;20059;-70
2021/03/12 11:26:24;;;;;;;4.53;2.55;;;24.40;89.70;;;;;;5072338;28;20111;-68
2021/03/12 11:28:51;;;;;;;8.68;3.00;;;24.40;89.60;;;;;;5072976;28;20024;-64
2021/03/12 11:31:19;;;;;;;7.65;2.70;;;24.40;89.60;;;;;;5072516;28;20043;-61
2021/03/12 11:33:46;;;;;;;6.63;2.83;;;24.40;89.60;;;;;;5073033;28;20036;-60
2021/03/12 11:36:14;;;;;;;8.07;2.70;;;24.40;89.50;;;;;;5072696;28;20027;-62
2021/03/12 11:38:41;;;;;;;6.43;2.65;;;24.40;89.60;;;;;;5072537;28;20056;-62
2021/03/12 11:41:09;;;;;;;5.53;2.72;;;24.40;89.50;;;;;;5072827;28;20020;-62
2021/03/12 11:43:37;;;;;;;7.45;2.90;;;24.40;89.50;;;;;;5071133;28;20027;-58
2021/03/12 11:46:04;;;;;;;6.80;2.45;;;24.40;89.50;;;;;;5071616;28;20055;-58
2021/03/12 11:48:31;;;;;;;6.40;2.72;;;24.40;89.50;;;;;;5072465;28;20054;-63
2021/03/12 11:50:59;;;;;;;7.25;2.58;;;24.40;89.50;;;;;;5072549;28;20420;-67
2021/03/12 11:53:27;;;;;;;6.63;2.55;;;24.40;89.50;;;;;;5072711;28;20032;-57
2021/03/12 11:55:54;;;;;;;6.00;2.28;;;24.40;89.40;;;;;;5072452;28;20027;-61
2021/03/12 11:58:22;;;;;;;6.85;2.60;;;24.30;89.40;;;;;;5072305;28;20070;-63
2021/03/12 12:00:50;;;;;;;8.98;2.70;;;24.40;89.40;;;;;;5071927;28;20053;-55
2021/03/12 12:03:18;;;;;;;6.85;2.63;;;24.40;89.40;;;;;;5072445;28;20502;-64
2021/03/12 12:05:46;;;;;;;6.50;2.78;;;24.30;89.40;;;;;;5072308;28;20044;-59
2021/03/12 12:08:13;;;;;;;7.32;2.80;;;24.40;89.40;;;;;;5071931;28;20535;-65
2021/03/12 12:10:41;;;;;;;6.13;2.88;;;24.40;89.30;;;;;;5071928;28;20060;-59
2021/03/12 12:13:08;;;;;;;5.00;2.40;;;24.40;89.30;;;;;;5072245;28;20317;-58
2021/03/12 12:15:35;;;;;;;6.68;2.65;;;24.30;89.20;;;;;;5072327;28;20475;-62
2021/03/12 12:18:10;;;;;;;6.78;2.25;;;24.30;89.20;;;;;;5072251;28;20025;-58
2021/03/12 12:20:43;;;;;;;6.60;2.45;;;24.30;89.20;;;;;;5072103;28;20031;-59
2021/03/12 12:23:11;;;;;;;7.32;2.85;;;24.30;89.20;;;;;;5071939;28;20047;-53
2021/03/12 12:25:39;;;;;;;5.93;2.38;;;24.30;89.20;;;;;;5072201;28;20517;-58
2021/03/12 12:28:06;;;;;;;6.40;2.65;;;24.30;89.20;;;;;;5072112;28;20418;-57
2021/03/12 12:30:34;;;;;;;7.13;2.10;;;24.30;89.30;;;;;;5072262;28;20028;-54
2021/03/12 12:33:02;;;;;;;9.20;2.83;;;24.30;89.20;;;;;;5071792;28;20048;-53
2021/03/12 12:35:29;;;;;;;5.35;2.10;;;24.30;89.20;;;;;;5070708;28;20021;-59
2021/03/12 12:37:56;;;;;;;5.00;2.42;;;24.30;89.80;;;;;;5064778;28;20496;-54
2021/03/12 12:40:25;;;;;;;5.13;2.22;;;24.30;89.10;;;;;;5066666;28;20024;-58
2021/03/12 12:42:52;;;;;;;7.18;2.33;;;24.30;89.10;;;;;;5069352;28;20354;-59
2021/03/12 12:45:19;;;;;;;5.78;2.35;;;24.30;89.10;;;;;;5074533;28;20025;-55
2021/03/12 12:47:47;;;;;;;5.60;2.25;;;24.30;89.10;;;;;;5071964;28;20033;-54
2021/03/12 12:50:15;;;;;;;6.32;2.42;;;24.20;89.00;;;;;;5067526;28;20107;-65
2021/03/12 12:52:42;;;;;;;5.15;2.00;;;24.30;89.10;;;;;;5071446;28;20048;-55
2021/03/12 12:55:11;;;;;;;6.15;2.35;;;24.30;89.10;;;;;;5072296;28;20032;-55
2021/03/12 12:57:39;;;;;;;5.35;2.58;;;24.20;89.00;;;;;;5071683;28;20020;-62
2021/03/12 13:00:09;;;;;;;4.88;2.47;;;24.20;89.00;;;;;;5068067;28;20023;-61
2021/03/12 13:02:37;;;;;;;5.03;2.13;;;24.20;89.00;;;;;;5073384;28;20027;-66
2021/03/12 13:05:06;;;;;;;5.60;2.45;;;24.20;88.90;;;;;;5070727;28;20063;-55
2021/03/12 13:07:34;;;;;;;5.97;2.08;;;24.20;88.90;;;;;;5070892;28;20364;-60
2021/03/12 13:10:02;;;;;;;5.55;2.20;;;24.20;88.90;;;;;;5070316;28;20486;-58